Time;durP1;ratioP1;P1;durP2;ratioP2;P2;SDS_P1;SDS_P2;PMS_P1;PMS_P2;Temp;Humidity;BMP_temperature;BMP_pressure;BME280_temperature;BME280_humidity;BME280_pressure;Samples;Min_cycle;Max_cycle;Signal;HPM_P1;HPM_P2
2022/09/17 00:01:22;;;;;;;0.88;0.80;;;;;;;11.11;100.00;98742.23;1712610;82;21118;-47
2022/09/17 00:03:51;;;;;;;3.42;0.90;;;;;;;11.06;100.00;98737.13;1706597;82;21057;-47
2022/09/17 00:06:17;;;;;;;0.88;0.80;;;;;;;11.01;100.00;98732.54;1712152;82;22168;-47
2022/09/17 00:08:45;;;;;;;7.47;0.90;;;;;;;10.99;100.00;98723.69;1707756;82;21053;-47
2022/09/17 00:11:26;;;;;;;9.68;0.90;;;;;;;10.97;100.00;98708.14;1707088;82;21049;-47
2022/09/17 00:13:53;;;;;;;3.00;0.82;;;;;;;10.97;100.00;98701.41;1686584;83;21713;-49
2022/09/17 00:16:36;;;;;;;2.95;1.30;;;;;;;10.97;100.00;98691.48;1694703;83;21113;-47
2022/09/17 00:19:04;;;;;;;3.52;0.80;;;;;;;11.01;100.00;98693.50;1701237;83;21858;-46
2022/09/17 00:21:30;;;;;;;2.17;0.80;;;;;;;11.05;100.00;98700.42;1694029;83;21950;-47
2022/09/17 00:23:59;;;;;;;2.45;0.80;;;;;;;11.11;100.00;98703.17;1754824;80;21095;-47
2022/09/17 00:26:26;;;;;;;1.30;1.00;;;;;;;11.14;100.00;98700.29;1751104;80;21422;-47
2022/09/17 00:28:53;;;;;;;3.42;0.95;;;;;;;11.16;100.00;98692.46;1753207;80;21062;-47
2022/09/17 00:31:20;;;;;;;2.77;1.20;;;;;;;11.19;100.00;98690.92;1752469;80;21130;-47
2022/09/17 00:33:46;;;;;;;2.77;0.90;;;;;;;11.21;100.00;98702.46;1752604;80;21671;-47
2022/09/17 00:36:13;;;;;;;4.55;1.27;;;;;;;11.23;100.00;98709.94;1754777;80;21471;-47
2022/09/17 00:38:40;;;;;;;2.67;0.80;;;;;;;11.24;100.00;98707.63;1757448;80;21073;-47
2022/09/17 00:41:06;;;;;;;4.37;0.80;;;;;;;11.25;100.00;98693.19;1750340;80;21120;-47
2022/09/17 00:43:42;;;;;;;2.35;0.90;;;;;;;11.27;100.00;98688.57;1751731;80;22713;-47
2022/09/17 00:46:26;;;;;;;4.55;1.00;;;;;;;11.30;100.00;98699.15;1751807;80;21096;-47
2022/09/17 00:48:53;;;;;;;1.10;0.80;;;;;;;11.34;100.00;98708.73;1677190;82;21106;-47
2022/09/17 00:51:28;;;;;;;2.30;1.00;;;;;;;11.35;100.00;98714.50;1700746;82;20966;-47
2022/09/17 00:53:55;;;;;;;3.02;0.75;;;;;;;11.32;100.00;98705.75;1732819;80;20938;-47
2022/09/17 00:56:25;;;;;;;6.95;1.35;;;;;;;11.25;100.00;98694.53;1759413;80;21053;-47
2022/09/17 00:58:51;;;;;;;4.28;0.80;;;;;;;11.21;100.00;98693.03;1756463;80;20951;-47
2022/09/17 01:01:18;;;;;;;7.42;1.05;;;;;;;11.16;100.00;98697.84;1754681;80;20926;-47
2022/09/17 01:03:44;;;;;;;3.58;1.05;;;;;;;11.13;100.00;98708.84;1756071;80;20962;-47
2022/09/17 01:06:43;;;;;;;2.33;0.80;;;;;;;11.11;100.00;98710.77;1756805;80;20964;-47
2022/09/17 01:09:47;;;;;;;6.17;0.80;;;;;;;11.14;100.00;98717.80;1754186;80;21451;-47
2022/09/17 01:12:22;;;;;;;4.40;0.95;;;;;;;11.18;100.00;98717.95;1748710;80;20959;-47
2022/09/17 01:15:08;;;;;;;5.17;0.78;;;;;;;11.22;100.00;98710.92;1741962;80;20945;-47
2022/09/17 01:17:43;;;;;;;1.35;0.98;;;;;;;11.26;100.00;98712.43;1732028;80;20909;-47
2022/09/17 01:20:35;;;;;;;5.25;1.30;;;;;;;11.30;100.00;98709.92;1746660;80;20949;-47
2022/09/17 01:23:27;;;;;;;3.33;1.00;;;;;;;11.35;100.00;98710.47;1743995;80;22311;-47
2022/09/17 01:26:25;;;;;;;2.17;0.90;;;;;;;11.36;100.00;98720.28;1742549;81;20921;-47
2022/09/17 01:29:37;;;;;;;2.72;0.72;;;;;;;11.38;100.00;98725.56;1740745;80;22539;-47
2022/09/17 01:32:14;;;;;;;8.83;0.80;;;;;;;11.38;100.00;98726.92;1740688;80;21059;-47
2022/09/17 01:34:53;;;;;;;4.65;0.98;;;;;;;11.36;100.00;98722.11;1738023;80;21072;-47
2022/09/17 01:38:01;;;;;;;4.53;0.80;;;;;;;11.36;100.00;98716.23;1740259;81;21139;-47
2022/09/17 01:40:51;;;;;;;2.60;0.70;;;;;;;11.38;100.00;98713.45;1741019;80;21036;-46
2022/09/17 01:43:28;;;;;;;2.45;0.82;;;;;;;11.39;100.00;98716.52;1743141;80;21078;-47
2022/09/17 01:46:00;;;;;;;1.10;0.80;;;;;;;11.41;100.00;98717.73;1673693;83;21067;-47
2022/09/17 01:48:30;;;;;;;5.08;0.93;;;;;;;11.40;100.00;98728.16;1674537;83;21114;-47
2022/09/17 01:51:04;;;;;;;2.77;0.75;;;;;;;11.37;100.00;98734.13;1697904;82;21159;-47
2022/09/17 01:53:50;;;;;;;2.27;0.80;;;;;;;11.37;100.00;98728.74;1703575;82;20974;-47
2022/09/17 01:56:20;;;;;;;1.55;0.72;;;;;;;11.38;100.00;98739.91;1702959;82;21090;-46
2022/09/17 01:58:51;;;;;;;2.47;0.80;;;;;;;11.41;100.00;98725.82;1703973;82;21050;-46
2022/09/17 02:01:19;;;;;;;1.50;0.75;;;;;;;11.43;100.00;98731.98;1700786;82;21330;-47
2022/09/17 02:03:53;;;;;;;5.53;1.02;;;;;;;11.48;100.00;98735.24;1702717;82;21490;-45
2022/09/17 02:06:23;;;;;;;0.90;0.70;;;;;;;11.52;100.00;98729.53;1706778;82;21061;-47
2022/09/17 02:09:17;;;;;;;1.20;0.70;;;;;;;11.59;100.00;98734.00;1706454;82;21642;-47
2022/09/17 02:11:51;;;;;;;4.67;0.80;;;;;;;11.64;100.00;98732.74;1741164;80;21081;-47
2022/09/17 02:14:22;;;;;;;3.37;1.00;;;;;;;11.70;100.00;98722.88;1752409;80;21110;-47
2022/09/17 02:16:52;;;;;;;0.88;0.78;;;;;;;11.74;100.00;98732.50;1756706;80;21117;-47
2022/09/17 02:19:34;;;;;;;2.10;1.25;;;;;;;11.78;100.00;98743.95;1751177;80;21091;-46
2022/09/17 02:22:35;;;;;;;1.70;0.90;;;;;;;11.81;100.00;98730.75;1753099;80;21576;-49
2022/09/17 02:25:19;;;;;;;1.10;0.90;;;;;;;11.83;100.00;98731.00;1755955;80;21116;-50
2022/09/17 02:28:09;;;;;;;1.17;0.80;;;;;;;11.85;100.00;98735.80;1749903;80;21083;-46
2022/09/17 02:30:35;;;;;;;0.93;0.80;;;;;;;11.83;100.00;98735.04;1756808;80;21137;-47
2022/09/17 02:33:02;;;;;;;1.75;0.80;;;;;;;11.83;100.00;98735.52;1753354;80;21053;-44
2022/09/17 02:35:31;;;;;;;4.55;0.70;;;;;;;11.84;100.00;98733.21;1755331;80;21971;-47
2022/09/17 02:37:57;;;;;;;1.00;0.80;;;;;;;11.83;100.00;98730.13;1752738;80;21054;-45
2022/09/17 02:40:25;;;;;;;5.10;0.90;;;;;;;11.83;100.00;98731.00;1750751;80;21468;-47
2022/09/17 02:43:17;;;;;;;1.15;0.80;;;;;;;11.82;100.00;98728.44;1753244;80;21179;-45
2022/09/17 02:46:28;;;;;;;3.20;0.80;;;;;;;11.84;100.00;98731.86;1753550;80;21034;-45
2022/09/17 02:49:19;;;;;;;2.02;0.80;;;;;;;11.84;100.00;98721.94;1753054;80;21524;-46
2022/09/17 02:52:18;;;;;;;4.10;0.90;;;;;;;11.87;100.00;98728.48;1751949;80;21363;-48
2022/09/17 02:55:02;;;;;;;4.95;1.07;;;;;;;11.89;100.00;98720.29;1750977;80;21071;-47
2022/09/17 02:58:01;;;;;;;4.20;1.07;;;;;;;11.92;100.00;98707.92;1755766;80;21144;-46
2022/09/17 03:00:28;;;;;;;1.32;0.70;;;;;;;11.92;100.00;98699.34;1749266;80;21528;-49
2022/09/17 03:03:14;;;;;;;1.07;0.70;;;;;;;11.94;100.00;98704.64;1752464;80;21045;-45
2022/09/17 03:05:41;;;;;;;2.33;0.75;;;;;;;12.00;100.00;98698.80;1750659;80;21058;-44
2022/09/17 03:08:11;;;;;;;1.20;0.70;;;;;;;12.00;100.00;98705.06;1693242;82;21069;-45
2022/09/17 03:10:39;;;;;;;4.00;1.10;;;;;;;12.00;100.00;98705.06;1720379;82;21069;-46
2022/09/17 03:13:05;;;;;;;1.90;0.95;;;;;;;12.09;100.00;98716.55;1749008;80;21121;-46
2022/09/17 03:15:31;;;;;;;1.30;1.20;;;;;;;12.09;100.00;98703.06;1743018;80;21099;-46
2022/09/17 03:17:58;;;;;;;2.85;1.20;;;;;;;12.09;100.00;98703.06;1749791;80;21641;-46
2022/09/17 03:20:25;;;;;;;0.80;0.78;;;;;;;12.13;100.00;98703.72;1745849;80;21093;-47
2022/09/17 03:22:51;;;;;;;1.98;0.72;;;;;;;12.14;100.00;98712.20;1746899;80;21926;-46
2022/09/17 03:25:18;;;;;;;5.00;0.90;;;;;;;12.16;100.00;98711.61;1749643;80;21025;-47
2022/09/17 03:27:44;;;;;;;2.80;0.80;;;;;;;12.16;100.00;98710.27;1747434;80;21046;-46
2022/09/17 03:30:11;;;;;;;4.03;0.90;;;;;;;12.15;100.00;98716.62;1752745;80;22200;-45
2022/09/17 03:32:37;;;;;;;2.00;0.82;;;;;;;12.11;100.00;98714.62;1749614;80;21538;-46
2022/09/17 03:35:07;;;;;;;2.10;0.70;;;;;;;12.11;100.00;98714.62;1748442;80;21074;-46
2022/09/17 03:37:33;;;;;;;1.25;0.68;;;;;;;12.14;100.00;98708.16;1751853;80;20980;-47
2022/09/17 03:40:00;;;;;;;1.90;0.80;;;;;;;12.21;100.00;98712.62;1748400;80;21281;-47
2022/09/17 03:42:26;;;;;;;2.40;0.85;;;;;;;12.21;100.00;98712.62;1749526;80;21570;-45
2022/09/17 03:44:53;;;;;;;0.82;0.78;;;;;;;12.23;100.00;98710.69;1753402;80;21126;-46
2022/09/17 03:47:19;;;;;;;1.17;1.00;;;;;;;12.26;100.00;98715.84;1749498;80;21112;-45
2022/09/17 03:49:46;;;;;;;2.80;1.32;;;;;;;12.28;100.00;98726.05;1751208;80;21454;-46
2022/09/17 03:52:12;;;;;;;1.20;1.10;;;;;;;12.28;100.00;98726.05;1749678;80;21085;-44
2022/09/17 03:54:39;;;;;;;1.50;0.80;;;;;;;12.25;100.00;98732.51;1752977;80;21046;-45
2022/09/17 03:57:05;;;;;;;3.33;1.00;;;;;;;12.24;100.00;98735.34;1749629;80;21517;-47
2022/09/17 03:59:32;;;;;;;3.25;0.80;;;;;;;12.22;100.00;98725.14;1750582;80;21160;-47
2022/09/17 04:01:58;;;;;;;2.60;0.93;;;;;;;12.21;100.00;98726.97;1745481;80;21032;-45
2022/09/17 04:04:24;;;;;;;1.00;0.80;;;;;;;12.18;100.00;98735.27;1754032;80;20949;-48
2022/09/17 04:06:53;;;;;;;1.62;0.80;;;;;;;12.17;100.00;98740.77;1750722;80;20983;-46
2022/09/17 04:09:20;;;;;;;1.00;0.80;;;;;;;12.17;100.00;98740.28;1750975;80;21362;-47
2022/09/17 04:11:48;;;;;;;1.70;0.80;;;;;;;12.23;100.00;98728.22;1750417;80;21416;-45
2022/09/17 04:14:15;;;;;;;3.55;0.88;;;;;;;12.23;100.00;98728.22;1749766;80;20962;-48
2022/09/17 04:16:41;;;;;;;0.95;0.85;;;;;;;12.27;100.00;98732.41;1750585;80;21484;-46
2022/09/17 04:19:07;;;;;;;1.10;0.90;;;;;;;12.31;100.00;98748.77;1752807;80;20985;-46
2022/09/17 04:21:34;;;;;;;1.72;0.85;;;;;;;12.36;100.00;98761.44;1755791;80;21334;-47
2022/09/17 04:24:01;;;;;;;2.55;1.00;;;;;;;12.37;100.00;98755.94;1747360;80;21173;-47
2022/09/17 04:26:27;;;;;;;1.75;1.10;;;;;;;12.37;100.00;98763.17;1747893;80;21055;-48
2022/09/17 04:28:53;;;;;;;0.98;0.80;;;;;;;12.37;100.00;98765.38;1754763;80;21504;-46
2022/09/17 04:31:23;;;;;;;9.23;1.12;;;;;;;12.38;100.00;98770.30;1749639;80;21654;-48
2022/09/17 04:33:50;;;;;;;1.07;0.80;;;;;;;12.38;100.00;98779.73;1749194;80;21152;-45
2022/09/17 04:36:17;;;;;;;2.33;0.80;;;;;;;12.40;100.00;98775.97;1741913;80;21194;-45
2022/09/17 04:38:43;;;;;;;1.65;1.10;;;;;;;12.40;100.00;98775.97;1747355;80;21042;-46
2022/09/17 04:41:09;;;;;;;1.07;0.82;;;;;;;12.41;100.00;98768.74;1747440;80;21577;-45
2022/09/17 04:43:36;;;;;;;1.52;0.80;;;;;;;12.42;100.00;98768.61;1748556;80;21025;-46
2022/09/17 04:46:02;;;;;;;3.55;0.93;;;;;;;12.45;100.00;98749.50;1746591;80;21037;-47
2022/09/17 04:48:29;;;;;;;1.85;1.25;;;;;;;12.45;100.00;98749.50;1748683;80;21129;-46
2022/09/17 04:50:55;;;;;;;1.10;0.90;;;;;;;12.49;100.00;98744.28;1750435;80;21468;-47
2022/09/17 04:53:22;;;;;;;1.20;1.05;;;;;;;12.54;100.00;98734.48;1749967;80;21540;-45
2022/09/17 04:55:48;;;;;;;1.20;1.10;;;;;;;12.58;100.00;98733.30;1748376;80;21064;-46
2022/09/17 04:58:14;;;;;;;1.80;1.00;;;;;;;12.63;100.00;98732.95;1747493;80;21026;-45
2022/09/17 05:00:41;;;;;;;3.17;1.10;;;;;;;12.68;100.00;98736.17;1747470;80;21222;-45
2022/09/17 05:03:07;;;;;;;1.52;1.00;;;;;;;12.74;100.00;98747.41;1745066;80;21564;-47
2022/09/17 05:05:34;;;;;;;1.15;1.05;;;;;;;12.80;100.00;98749.66;1749804;80;21025;-45
2022/09/17 05:08:02;;;;;;;2.15;1.07;;;;;;;12.83;100.00;98753.49;1704081;82;21040;-47
2022/09/17 05:10:29;;;;;;;2.58;1.00;;;;;;;12.85;100.00;98765.02;1751861;80;21038;-47
2022/09/17 05:12:56;;;;;;;1.55;0.90;;;;;;;12.86;100.00;98765.89;1752623;80;21258;-46
2022/09/17 05:15:24;;;;;;;2.08;1.05;;;;;;;12.91;100.00;98758.81;1752948;80;21057;-47
2022/09/17 05:17:50;;;;;;;2.80;1.10;;;;;;;12.97;100.00;98763.76;1747735;80;21085;-47
2022/09/17 05:20:16;;;;;;;2.67;0.93;;;;;;;13.03;100.00;98763.30;1750580;80;21635;-46
2022/09/17 05:22:50;;;;;;;1.65;0.95;;;;;;;13.06;100.00;98761.73;1747231;80;21046;-44
2022/09/17 05:25:19;;;;;;;1.30;1.20;;;;;;;13.10;100.00;98751.92;1752582;80;21332;-46
2022/09/17 05:27:46;;;;;;;3.65;1.00;;;;;;;13.14;100.00;98760.70;1748611;80;20997;-46
2022/09/17 05:30:12;;;;;;;1.05;0.80;;;;;;;13.17;100.00;98762.70;1751766;80;21066;-47
2022/09/17 05:32:40;;;;;;;1.10;0.72;;;;;;;13.18;100.00;98763.05;1754160;80;21072;-44
2022/09/17 05:35:07;;;;;;;0.88;0.80;;;;;;;13.22;100.00;98764.56;1755786;80;21065;-46
2022/09/17 05:37:34;;;;;;;2.17;0.80;;;;;;;13.25;100.00;98758.08;1756581;80;21204;-45
2022/09/17 05:40:05;;;;;;;1.35;0.90;;;;;;;13.29;100.00;98766.80;1752983;80;21056;-46
2022/09/17 05:42:31;;;;;;;4.67;0.98;;;;;;;13.33;100.00;98754.31;1754061;80;20986;-48
2022/09/17 05:44:58;;;;;;;1.65;0.90;;;;;;;13.37;100.00;98757.14;1752722;80;21005;-47
2022/09/17 05:47:25;;;;;;;3.83;1.30;;;;;;;13.42;100.00;98763.08;1747899;80;21084;-48
2022/09/17 05:49:51;;;;;;;3.35;1.50;;;;;;;13.45;100.00;98766.88;1756486;80;21164;-46
2022/09/17 05:52:18;;;;;;;2.50;1.30;;;;;;;13.49;100.00;98764.34;1748978;80;21129;-47
2022/09/17 05:54:45;;;;;;;1.10;1.00;;;;;;;13.54;100.00;98761.27;1750725;80;21687;-47
2022/09/17 05:57:12;;;;;;;1.70;0.80;;;;;;;13.58;100.00;98769.53;1751269;80;21073;-49
2022/09/17 05:59:38;;;;;;;0.98;0.90;;;;;;;13.61;100.00;98771.98;1749959;80;21097;-46
2022/09/17 06:02:05;;;;;;;1.65;0.90;;;;;;;13.63;100.00;98761.44;1748760;80;21856;-48
2022/09/17 06:04:31;;;;;;;0.90;0.60;;;;;;;13.67;100.00;98769.33;1747742;80;21038;-47
2022/09/17 06:06:57;;;;;;;1.57;0.70;;;;;;;13.70;100.00;98770.42;1757720;80;21061;-46
2022/09/17 06:09:24;;;;;;;2.27;0.70;;;;;;;13.73;100.00;98768.84;1753663;80;21552;-46
2022/09/17 06:11:51;;;;;;;0.80;0.80;;;;;;;13.76;100.00;98763.22;1752204;80;21094;-48
2022/09/17 06:14:17;;;;;;;1.05;0.70;;;;;;;13.79;100.00;98762.96;1759536;80;22278;-48
2022/09/17 06:16:44;;;;;;;0.90;0.80;;;;;;;13.83;100.00;98758.56;1758809;80;21706;-46
2022/09/17 06:19:10;;;;;;;2.17;1.00;;;;;;;13.87;100.00;98753.77;1759630;80;21053;-46
2022/09/17 06:21:37;;;;;;;1.10;1.00;;;;;;;13.91;100.00;98749.36;1755768;80;21932;-47
2022/09/17 06:24:04;;;;;;;2.05;1.00;;;;;;;13.94;100.00;98742.38;1759738;80;21057;-45
2022/09/17 06:26:30;;;;;;;3.33;1.10;;;;;;;14.00;100.00;98747.79;1756553;80;21247;-47
2022/09/17 06:28:59;;;;;;;1.60;1.20;;;;;;;14.04;100.00;98758.73;1760649;80;21086;-46
2022/09/17 06:31:25;;;;;;;3.20;1.00;;;;;;;14.10;100.00;98763.68;1757902;80;21091;-46
2022/09/17 06:33:51;;;;;;;2.85;0.90;;;;;;;14.14;100.00;98763.80;1757979;80;21143;-46
2022/09/17 06:36:18;;;;;;;0.90;0.72;;;;;;;14.19;100.00;98760.26;1761216;80;21668;-46
2022/09/17 06:38:44;;;;;;;2.02;0.80;;;;;;;14.23;100.00;98768.48;1753239;80;21584;-46
2022/09/17 06:41:13;;;;;;;1.57;0.90;;;;;;;14.26;100.00;98764.69;1758452;80;21116;-46
2022/09/17 06:43:39;;;;;;;1.52;0.80;;;;;;;14.31;100.00;98773.30;1756977;80;21501;-48
2022/09/17 06:46:07;;;;;;;1.40;0.90;;;;;;;14.35;100.00;98769.38;1759094;80;21856;-45
2022/09/17 06:48:34;;;;;;;1.07;0.90;;;;;;;14.39;100.00;98769.52;1702925;82;22300;-47
2022/09/17 06:51:04;;;;;;;1.15;0.75;;;;;;;14.43;100.00;98771.02;1762473;80;22000;-46
2022/09/17 06:53:31;;;;;;;2.87;0.90;;;;;;;14.46;100.00;98781.59;1759252;80;21121;-46
2022/09/17 06:55:58;;;;;;;3.10;0.80;;;;;;;14.50;100.00;98783.57;1756827;80;21030;-47
2022/09/17 06:58:25;;;;;;;6.40;0.98;;;;;;;14.53;100.00;98785.55;1760398;80;21156;-45
2022/09/17 07:00:51;;;;;;;2.02;0.70;;;;;;;14.55;100.00;98778.14;1725422;82;21370;-46
2022/09/17 07:03:18;;;;;;;1.45;0.68;;;;;;;14.58;100.00;98778.41;1762533;80;21112;-45
2022/09/17 07:05:48;;;;;;;0.62;0.60;;;;;;;14.61;100.00;98770.91;1761509;80;20916;-46
2022/09/17 07:08:15;;;;;;;2.75;0.80;;;;;;;14.64;100.00;98770.64;1758071;80;21006;-46
2022/09/17 07:10:42;;;;;;;1.87;0.80;;;;;;;14.68;100.00;98779.39;1760570;80;20902;-46
2022/09/17 07:13:09;;;;;;;1.20;0.90;;;;;;;14.71;100.00;98781.37;1757997;80;21140;-47
2022/09/17 07:15:35;;;;;;;1.35;0.80;;;;;;;14.76;100.00;98783.22;1752239;80;21818;-45
2022/09/17 07:18:10;;;;;;;5.15;0.90;;;;;;;14.79;100.00;98779.41;1753667;80;21087;-46
2022/09/17 07:20:38;;;;;;;4.45;0.98;;;;;;;14.81;100.00;98778.77;1749679;80;22496;-47
2022/09/17 07:23:04;;;;;;;2.85;1.00;;;;;;;14.83;100.00;98778.16;1752764;80;21030;-49
2022/09/17 07:25:31;;;;;;;0.90;0.70;;;;;;;14.85;100.00;98780.75;1749087;80;21053;-46
2022/09/17 07:27:58;;;;;;;2.60;0.70;;;;;;;14.86;100.00;98786.05;1751990;80;21628;-45
2022/09/17 07:30:25;;;;;;;2.15;0.80;;;;;;;14.89;100.00;98785.78;1746903;80;21407;-46
2022/09/17 07:32:51;;;;;;;0.80;0.70;;;;;;;14.91;100.00;98783.81;1748866;80;21038;-48
2022/09/17 07:35:17;;;;;;;1.00;0.80;;;;;;;14.95;100.00;98785.80;1748366;80;21425;-46
2022/09/17 07:37:44;;;;;;;1.55;0.70;;;;;;;14.98;100.00;98785.52;1693031;82;21080;-45
2022/09/17 07:40:11;;;;;;;2.33;0.83;;;;;;;15.00;100.00;98779.00;1751636;80;21154;-47
2022/09/17 07:42:37;;;;;;;1.00;0.70;;;;;;;15.03;100.00;98768.41;1754248;80;21267;-46
2022/09/17 07:45:05;;;;;;;2.35;0.80;;;;;;;15.05;100.00;98766.45;1757346;80;21091;-46
2022/09/17 07:47:31;;;;;;;1.67;0.80;;;;;;;15.07;100.00;98766.66;1751104;80;21069;-47
2022/09/17 07:49:59;;;;;;;1.42;0.80;;;;;;;15.12;100.00;98762.24;1756650;80;21046;-46
2022/09/17 07:52:25;;;;;;;1.67;0.90;;;;;;;15.15;100.00;98761.97;1749635;80;21630;-46
2022/09/17 07:54:53;;;;;;;3.90;0.60;;;;;;;15.18;100.00;98765.79;1751702;80;21046;-46
2022/09/17 07:57:20;;;;;;;2.30;0.90;;;;;;;15.20;100.00;98757.05;1750455;80;21038;-46
2022/09/17 07:59:46;;;;;;;3.67;0.85;;;;;;;15.25;100.00;98756.65;1751910;80;21030;-46
2022/09/17 08:02:13;;;;;;;3.15;0.70;;;;;;;15.29;100.00;98756.78;1752575;79;21512;-47
2022/09/17 08:04:42;;;;;;;1.10;0.70;;;;;;;15.33;100.00;98759.58;1753335;80;21186;-46
2022/09/17 08:07:12;;;;;;;1.35;0.80;;;;;;;15.36;100.00;98764.27;1751722;80;21202;-45
2022/09/17 08:09:39;;;;;;;3.42;1.10;;;;;;;15.40;100.00;98760.79;1749415;80;21126;-45
2022/09/17 08:12:06;;;;;;;2.62;0.82;;;;;;;15.43;100.00;98768.19;1754802;80;21059;-45
2022/09/17 08:14:33;;;;;;;1.40;0.90;;;;;;;15.46;100.00;98763.02;1756875;80;21045;-45
2022/09/17 08:16:59;;;;;;;1.00;0.80;;;;;;;15.45;100.00;98758.08;1696246;83;21950;-47
2022/09/17 08:19:27;;;;;;;3.85;1.55;;;;;;;15.45;100.00;98757.22;1757197;80;21623;-47
2022/09/17 08:21:53;;;;;;;2.83;0.80;;;;;;;15.43;100.00;98757.34;1754757;80;21488;-47
2022/09/17 08:24:20;;;;;;;3.62;1.17;;;;;;;15.43;100.00;98762.77;1757136;80;21065;-47
2022/09/17 08:26:46;;;;;;;2.25;1.20;;;;;;;15.41;100.00;98763.38;1757392;79;21093;-46
2022/09/17 08:29:13;;;;;;;2.72;0.90;;;;;;;15.42;100.00;98756.11;1758750;80;22589;-47
2022/09/17 08:31:39;;;;;;;1.95;1.55;;;;;;;15.41;100.00;98762.52;1762026;80;20923;-48
2022/09/17 08:34:08;;;;;;;2.98;1.00;;;;;;;15.42;100.00;98763.75;1765459;80;21030;-46
2022/09/17 08:36:35;;;;;;;4.53;1.40;;;;;;;15.43;100.00;98760.55;1760447;80;21046;-47
2022/09/17 08:39:02;;;;;;;0.95;0.80;;;;;;;15.43;100.00;98770.90;1759807;80;21077;-47
2022/09/17 08:41:52;;;;;;;1.10;1.00;;;;;;;15.42;100.00;98765.11;1763204;80;21202;-46
2022/09/17 08:44:39;;;;;;;1.30;0.88;;;;;;;15.41;100.00;98757.09;1756928;80;21627;-47
2022/09/17 08:47:37;;;;;;;3.02;0.80;;;;;;;15.40;100.00;98750.80;1736566;80;21799;-48
2022/09/17 08:50:07;;;;;;;4.53;0.68;;;;;;;15.41;100.00;98742.17;1761818;80;21093;-46
2022/09/17 08:53:14;;;;;;;1.10;0.60;;;;;;;15.42;100.00;98744.77;1759635;79;21057;-49
2022/09/17 08:55:55;;;;;;;2.95;0.70;;;;;;;15.46;100.00;98739.47;1702584;82;21261;-47
2022/09/17 08:58:38;;;;;;;1.22;0.85;;;;;;;15.52;100.00;98741.66;1759639;80;21423;-46
2022/09/17 09:01:48;;;;;;;1.45;0.90;;;;;;;15.60;100.00;98756.45;1757668;80;21118;-47
2022/09/17 09:04:32;;;;;;;1.00;0.70;;;;;;;15.65;100.00;98761.84;1763890;80;22566;-47
2022/09/17 09:07:17;;;;;;;3.02;0.80;;;;;;;15.68;100.00;98758.02;1719377;82;21117;-47
2022/09/17 09:09:49;;;;;;;1.95;0.78;;;;;;;15.67;100.00;98758.51;1758921;80;21144;-46
2022/09/17 09:12:25;;;;;;;0.60;0.60;;;;;;;15.67;100.00;98757.15;1762013;80;21049;-47
2022/09/17 09:15:00;;;;;;;2.65;0.70;;;;;;;15.68;100.00;98757.52;1755430;80;21513;-48
2022/09/17 09:17:37;;;;;;;3.58;0.70;;;;;;;15.67;100.00;98751.73;1753852;80;21052;-46
2022/09/17 09:20:05;;;;;;;0.57;0.50;;;;;;;15.67;100.00;98759.00;1746146;80;21113;-46
2022/09/17 09:22:48;;;;;;;0.60;0.50;;;;;;;15.69;100.00;98747.04;1731880;80;21161;-48
2022/09/17 09:25:31;;;;;;;4.20;0.75;;;;;;;15.72;100.00;98747.28;1745421;80;21408;-46
2022/09/17 09:28:38;;;;;;;2.40;0.60;;;;;;;15.74;100.00;98758.84;1718811;80;22174;-46
2022/09/17 09:31:25;;;;;;;0.60;0.60;;;;;;;15.76;100.00;98759.58;1751228;80;21718;-49
2022/09/17 09:33:52;;;;;;;2.25;0.60;;;;;;;15.77;100.00;98748.60;1754967;80;21058;-46
2022/09/17 09:36:20;;;;;;;1.20;0.60;;;;;;;15.78;100.00;98750.33;1755167;80;21139;-46
2022/09/17 09:39:02;;;;;;;0.80;0.60;;;;;;;15.78;100.00;98755.75;1751525;80;21089;-46
2022/09/17 09:41:35;;;;;;;1.30;0.60;;;;;;;15.78;100.00;98759.83;1751567;80;21073;-49
2022/09/17 09:44:11;;;;;;;1.62;0.40;;;;;;;15.79;100.00;98775.61;1750587;80;21394;-47
2022/09/17 09:47:09;;;;;;;2.55;0.50;;;;;;;15.80;100.00;98756.49;1753576;80;21062;-47
2022/09/17 09:50:04;;;;;;;0.50;0.50;;;;;;;15.82;100.00;98754.48;1749984;80;21618;-49
2022/09/17 09:52:45;;;;;;;2.05;0.82;;;;;;;15.86;100.00;98772.73;1754963;80;21041;-47
2022/09/17 09:55:56;;;;;;;0.60;0.60;;;;;;;15.91;100.00;98771.00;1755674;80;20891;-47
2022/09/17 09:58:38;;;;;;;0.82;0.55;;;;;;;15.96;100.00;98763.31;1755009;80;20987;-47
2022/09/17 10:01:19;;;;;;;1.72;0.60;;;;;;;16.00;100.00;98762.04;1750136;80;20943;-45
2022/09/17 10:03:47;;;;;;;1.37;0.55;;;;;;;16.04;100.00;98761.66;1751587;80;21182;-46
2022/09/17 10:06:13;;;;;;;1.50;0.70;;;;;;;16.06;100.00;98758.33;1750667;80;20937;-48
2022/09/17 10:08:43;;;;;;;1.37;0.70;;;;;;;16.09;100.00;98763.97;1733577;81;20971;-48
2022/09/17 10:11:22;;;;;;;0.78;0.60;;;;;;;16.08;100.00;98764.95;1748943;80;21097;-46
2022/09/17 10:13:50;;;;;;;0.70;0.62;;;;;;;16.10;100.00;98767.05;1746552;80;21068;-47
2022/09/17 10:16:26;;;;;;;2.17;0.90;;;;;;;16.11;100.00;98776.92;1749684;80;22305;-46
2022/09/17 10:19:07;;;;;;;0.93;0.70;;;;;;;16.13;100.00;98762.23;1758765;80;20982;-49
2022/09/17 10:21:38;;;;;;;1.10;0.70;;;;;;;16.16;100.00;98758.39;1753839;80;21044;-47
2022/09/17 10:24:22;;;;;;;1.57;0.72;;;;;;;16.19;100.00;98755.39;1758825;80;21101;-48
2022/09/17 10:26:49;;;;;;;1.05;0.80;;;;;;;16.21;100.00;98760.20;1746573;80;21666;-46
2022/09/17 10:29:17;;;;;;;1.20;0.80;;;;;;;16.22;100.00;98758.72;1751774;80;21168;-48
2022/09/17 10:31:51;;;;;;;5.65;0.80;;;;;;;16.23;100.00;98767.23;1744678;80;21519;-47
2022/09/17 10:34:23;;;;;;;2.83;0.80;;;;;;;16.26;100.00;98759.29;1753069;80;26750;-46
2022/09/17 10:36:50;;;;;;;3.17;0.80;;;;;;;16.26;100.00;98751.15;1754004;80;21065;-47
2022/09/17 10:39:43;;;;;;;0.75;0.65;;;;;;;16.25;100.00;98757.56;1752809;80;21294;-46
2022/09/17 10:42:13;;;;;;;0.80;0.80;;;;;;;16.23;100.00;98757.73;1753984;80;21280;-48
2022/09/17 10:44:57;;;;;;;1.00;0.60;;;;;;;16.24;100.00;98766.73;1755535;80;20994;-46
2022/09/17 10:47:33;;;;;;;1.07;0.70;;;;;;;16.24;100.00;98761.30;1746498;80;21069;-45
2022/09/17 10:50:25;;;;;;;1.10;0.80;;;;;;;16.25;100.00;98758.43;1749167;80;21057;-46
2022/09/17 10:52:54;;;;;;;1.50;0.88;;;;;;;16.30;100.00;98762.61;1752514;80;21038;-47
2022/09/17 10:55:32;;;;;;;1.00;0.90;;;;;;;16.32;100.00;98761.99;1754204;80;21127;-46
2022/09/17 10:58:31;;;;;;;3.80;1.35;;;;;;;16.35;100.00;98757.13;1749603;80;21197;-46
2022/09/17 11:01:10;;;;;;;2.95;0.90;;;;;;;16.38;100.00;98756.88;1755033;80;21042;-48
2022/09/17 11:04:04;;;;;;;5.47;1.00;;;;;;;16.38;100.00;98747.38;1753710;80;21097;-47
2022/09/17 11:07:05;;;;;;;0.90;0.85;;;;;;;16.39;100.00;98753.17;1753375;80;21506;-46
2022/09/17 11:09:50;;;;;;;1.10;0.90;;;;;;;16.39;100.00;98738.73;1753212;80;21152;-45
2022/09/17 11:12:46;;;;;;;1.77;1.12;;;;;;;16.38;100.00;98740.58;1755656;80;21774;-45
2022/09/17 11:15:24;;;;;;;1.87;0.90;;;;;;;16.40;100.00;98746.75;1759636;80;21062;-47
2022/09/17 11:18:17;;;;;;;1.25;0.80;;;;;;;16.42;100.00;98741.16;1760274;80;22321;-46
2022/09/17 11:21:14;;;;;;;1.00;0.90;;;;;;;16.44;100.00;98742.75;1753700;80;21097;-47
2022/09/17 11:24:15;;;;;;;1.90;1.17;;;;;;;16.47;100.00;98738.91;1760654;80;21120;-46
2022/09/17 11:29:35;;;;;;;1.85;1.10;;;;;;;16.50;100.00;98723.19;1798004;78;28184;-46
2022/09/17 11:32:37;;;;;;;1.27;1.17;;;;;;;16.49;100.00;98731.50;1769865;79;21203;-46
2022/09/17 11:35:17;;;;;;;1.10;0.90;;;;;;;16.48;100.00;98733.35;1774107;79;22389;-46
2022/09/17 11:37:55;;;;;;;3.15;0.98;;;;;;;16.47;100.00;98727.55;1775665;79;21027;-46
2022/09/17 11:40:27;;;;;;;4.00;0.90;;;;;;;16.46;100.00;98711.38;1774581;79;21190;-47
2022/09/17 11:43:33;;;;;;;1.55;0.90;;;;;;;16.47;100.00;98707.67;1771999;79;22278;-46
2022/09/17 11:46:18;;;;;;;;;;;;;;;16.49;100.00;98703.84;1773962;79;21329;-46
2022/09/17 11:48:54;;;;;;;;;;;;;;;16.51;100.00;98705.89;1774014;79;22057;-47
2022/09/17 11:51:40;;;;;;;2.30;1.15;;;;;;;16.54;100.00;98707.48;1764203;79;20131;-46
2022/09/17 11:54:24;;;;;;;1.75;1.25;;;;;;;16.56;100.00;98705.00;1769575;79;21025;-47
2022/09/17 11:56:53;;;;;;;0.95;0.90;;;;;;;16.59;100.00;98693.84;1776990;79;21056;-45
2022/09/17 11:59:34;;;;;;;1.72;0.90;;;;;;;16.60;100.00;98698.78;1771167;79;21044;-48